Time;durP1;ratioP1;P1;durP2;ratioP2;P2;SDS_P1;SDS_P2;PMS_P1;PMS_P2;Temp;Humidity;BMP_temperature;BMP_pressure;BME280_temperature;BME280_humidity;BME280_pressure;Samples;Min_cycle;Max_cycle;Signal;HPM_P1;HPM_P2
2022/03/02 00:00:40;;;;;;;15.73;5.93;;;0.40;59.50;;;;;;5115206;28;20040;-77
2022/03/02 00:03:06;;;;;;;15.65;6.45;;;0.40;59.50;;;;;;5093437;28;20024;-74
2022/03/02 00:05:32;;;;;;;14.43;7.93;;;0.50;59.60;;;;;;5094660;28;20500;-75
2022/03/02 00:07:57;;;;;;;13.73;7.57;;;0.40;59.70;;;;;;5094531;28;20024;-76
2022/03/02 00:10:24;;;;;;;16.10;6.70;;;0.40;59.70;;;;;;5094526;28;20081;-78
2022/03/02 00:12:50;;;;;;;14.25;5.78;;;0.40;59.80;;;;;;5108061;28;20036;-76
2022/03/02 00:15:16;;;;;;;11.63;5.57;;;0.40;59.80;;;;;;5115689;28;20076;-76
2022/03/02 00:17:42;;;;;;;11.88;5.88;;;0.40;59.90;;;;;;5115018;28;20020;-75
2022/03/02 00:20:08;;;;;;;15.77;6.68;;;0.40;60.00;;;;;;5096353;28;20115;-76
2022/03/02 00:22:34;;;;;;;24.77;7.15;;;0.30;60.00;;;;;;5114698;28;20539;-75
2022/03/02 00:25:00;;;;;;;19.98;8.35;;;0.30;60.30;;;;;;5115144;28;20059;-76
2022/03/02 00:27:26;;;;;;;15.05;6.65;;;0.30;60.60;;;;;;5097084;28;20043;-76
2022/03/02 00:29:52;;;;;;;14.15;6.72;;;0.30;60.80;;;;;;5096490;28;20469;-76
2022/03/02 00:32:18;;;;;;;13.15;5.97;;;0.20;60.80;;;;;;5113678;28;20491;-76
2022/03/02 00:34:44;;;;;;;15.25;5.50;;;0.30;60.80;;;;;;5114442;28;20027;-76
2022/03/02 00:37:12;;;;;;;11.07;5.43;;;0.30;60.50;;;;;;5096240;28;20031;-75
2022/03/02 00:39:39;;;;;;;15.70;6.07;;;0.30;60.30;;;;;;5114354;28;20030;-76
2022/03/02 00:42:06;;;;;;;13.25;5.55;;;0.30;60.20;;;;;;5114426;28;20055;-76
2022/03/02 00:44:33;;;;;;;19.08;6.10;;;0.30;60.10;;;;;;5114199;28;20446;-77
2022/03/02 00:46:59;;;;;;;20.83;6.20;;;0.30;60.00;;;;;;5095961;28;20039;-75
2022/03/02 00:49:27;;;;;;;11.70;5.38;;;0.30;60.10;;;;;;5114399;28;20502;-77
2022/03/02 00:51:57;;;;;;;14.70;5.43;;;0.30;60.10;;;;;;5114140;28;20020;-76
2022/03/02 00:54:23;;;;;;;13.55;7.00;;;0.20;60.10;;;;;;5114166;28;20391;-78
2022/03/02 00:56:49;;;;;;;12.38;6.68;;;0.20;60.20;;;;;;5095525;28;20115;-76
2022/03/02 00:59:14;;;;;;;16.35;6.03;;;0.20;60.10;;;;;;5095705;28;20115;-75
2022/03/02 01:01:40;;;;;;;12.65;7.97;;;0.10;60.20;;;;;;5111785;28;20491;-75
2022/03/02 01:04:09;;;;;;;11.15;6.10;;;0.20;60.50;;;;;;5114301;28;20019;-76
2022/03/02 01:06:35;;;;;;;11.90;5.47;;;0.10;60.50;;;;;;5113968;28;20031;-75
2022/03/02 01:09:02;;;;;;;12.75;5.28;;;0.10;60.50;;;;;;5113760;28;20019;-76
2022/03/02 01:11:28;;;;;;;12.23;5.20;;;0.10;60.50;;;;;;5095412;28;20531;-77
2022/03/02 01:13:54;;;;;;;18.25;6.07;;;0.10;60.50;;;;;;5095583;28;20051;-74
2022/03/02 01:16:20;;;;;;;14.70;5.85;;;0.10;60.60;;;;;;5113747;28;20028;-76
2022/03/02 01:18:46;;;;;;;14.88;5.88;;;0.10;60.70;;;;;;5113558;28;20031;-75
2022/03/02 01:21:12;;;;;;;15.68;5.88;;;0.10;60.80;;;;;;5113430;28;20040;-75
2022/03/02 01:23:37;;;;;;;10.75;6.00;;;0.10;61.00;;;;;;5095365;28;20023;-78
2022/03/02 01:26:04;;;;;;;19.35;5.90;;;0.00;61.00;;;;;;5113414;28;20015;-75
2022/03/02 01:28:29;;;;;;;17.38;6.53;;;0.00;61.10;;;;;;5113298;28;20028;-74
2022/03/02 01:30:56;;;;;;;10.50;5.68;;;0.00;61.10;;;;;;5113222;28;20030;-76
2022/03/02 01:33:22;;;;;;;15.40;6.65;;;0.00;61.10;;;;;;5113277;28;20027;-75
2022/03/02 01:35:49;;;;;;;11.80;5.45;;;0.00;61.00;;;;;;5113370;28;20165;-77
2022/03/02 01:38:14;;;;;;;14.70;6.88;;;0.00;61.00;;;;;;5113302;28;20582;-75
2022/03/02 01:40:40;;;;;;;13.40;6.18;;;0.00;60.90;;;;;;5113090;28;20118;-76
2022/03/02 01:43:06;;;;;;;15.45;6.60;;;0.10;60.80;;;;;;5113554;28;20389;-76
2022/03/02 01:45:32;;;;;;;17.75;7.57;;;0.00;60.60;;;;;;5094815;28;20030;-76
2022/03/02 01:48:00;;;;;;;14.45;5.88;;;0.00;60.40;;;;;;5113022;28;20042;-77
2022/03/02 01:50:27;;;;;;;17.25;6.13;;;0.00;60.40;;;;;;5094694;28;20023;-76
2022/03/02 01:52:53;;;;;;;14.53;6.40;;;0.00;60.50;;;;;;5112930;28;20024;-76
2022/03/02 01:55:19;;;;;;;12.55;5.38;;;0.00;60.50;;;;;;5112834;28;20038;-78
2022/03/02 01:57:45;;;;;;;14.95;5.80;;;0.00;60.50;;;;;;5094393;28;20114;-76
2022/03/02 02:00:15;;;;;;;10.05;5.22;;;-0.10;60.40;;;;;;5112812;28;20102;-75
2022/03/02 02:02:42;;;;;;;11.75;5.65;;;-0.10;60.50;;;;;;5113055;28;20024;-76
2022/03/02 02:05:08;;;;;;;8.57;4.72;;;-0.20;60.40;;;;;;5113739;28;20015;-75
2022/03/02 02:07:34;;;;;;;12.23;5.30;;;-0.20;60.30;;;;;;5113681;28;20540;-75
2022/03/02 02:10:00;;;;;;;14.82;5.03;;;-0.20;60.40;;;;;;5113228;28;20063;-78
2022/03/02 02:12:26;;;;;;;9.90;6.25;;;-0.20;60.40;;;;;;5112581;28;20496;-76
2022/03/02 02:14:53;;;;;;;11.30;5.60;;;-0.20;60.50;;;;;;5112881;28;20071;-75
2022/03/02 02:17:19;;;;;;;13.80;6.20;;;-0.20;60.50;;;;;;5113443;28;20042;-76
2022/03/02 02:19:45;;;;;;;9.07;5.68;;;-0.30;60.70;;;;;;5113681;28;20024;-76
2022/03/02 02:22:10;;;;;;;13.52;5.63;;;-0.30;60.70;;;;;;5112654;28;20089;-76
2022/03/02 02:24:36;;;;;;;13.90;6.18;;;-0.40;60.80;;;;;;5112549;28;20015;-76
2022/03/02 02:27:02;;;;;;;13.07;6.03;;;-0.30;60.90;;;;;;5094088;28;20034;-76
2022/03/02 02:29:29;;;;;;;14.95;5.57;;;-0.40;60.90;;;;;;5112419;28;20076;-77
2022/03/02 02:31:56;;;;;;;10.77;5.00;;;-0.40;60.90;;;;;;5112480;28;20023;-76
2022/03/02 02:34:22;;;;;;;11.20;6.00;;;-0.30;60.80;;;;;;5112326;28;20608;-74
2022/03/02 02:36:49;;;;;;;17.38;4.80;;;-0.30;60.70;;;;;;5112386;28;20622;-76
2022/03/02 02:39:15;;;;;;;12.30;5.47;;;-0.40;60.70;;;;;;5112571;28;20035;-76
2022/03/02 02:41:40;;;;;;;14.25;5.60;;;-0.40;60.80;;;;;;5112319;28;20032;-77
2022/03/02 02:44:06;;;;;;;20.48;5.60;;;-0.40;60.90;;;;;;5112359;28;20381;-75
2022/03/02 02:46:32;;;;;;;18.23;5.43;;;-0.40;60.90;;;;;;5112490;28;20384;-76
2022/03/02 02:48:58;;;;;;;12.82;7.05;;;-0.40;60.80;;;;;;5112752;28;20020;-75
2022/03/02 02:51:24;;;;;;;10.55;4.38;;;-0.30;60.80;;;;;;5112572;28;20028;-76
2022/03/02 02:53:49;;;;;;;16.70;5.10;;;-0.30;60.80;;;;;;5112491;28;20038;-77
2022/03/02 02:56:15;;;;;;;12.73;5.07;;;-0.30;60.70;;;;;;5116198;28;20098;-76
2022/03/02 02:58:41;;;;;;;13.85;4.95;;;-0.30;60.70;;;;;;5116213;28;20411;-76
2022/03/02 03:01:07;;;;;;;12.68;4.90;;;-0.30;60.80;;;;;;5115180;28;20035;-75
2022/03/02 03:03:33;;;;;;;11.25;5.80;;;-0.40;60.80;;;;;;5116851;28;20024;-74
2022/03/02 03:05:59;;;;;;;17.42;6.13;;;-0.40;60.90;;;;;;5099234;28;20199;-75
2022/03/02 03:08:24;;;;;;;14.20;5.50;;;-0.40;61.00;;;;;;5104096;28;20435;-76
2022/03/02 03:10:50;;;;;;;12.18;5.60;;;-0.40;61.10;;;;;;5095794;28;20028;-74
2022/03/02 03:13:17;;;;;;;9.30;5.05;;;-0.40;61.10;;;;;;5113658;28;20016;-75
2022/03/02 03:15:43;;;;;;;15.50;6.68;;;-0.40;61.30;;;;;;5117619;28;20107;-75
2022/03/02 03:18:10;;;;;;;11.90;5.83;;;-0.50;61.30;;;;;;5118603;28;20016;-76
2022/03/02 03:20:36;;;;;;;11.05;4.90;;;-0.50;61.30;;;;;;5116271;28;20055;-75
2022/03/02 03:23:03;;;;;;;14.63;4.32;;;-0.50;61.40;;;;;;5098879;28;20481;-75
2022/03/02 03:25:29;;;;;;;12.35;4.65;;;-0.60;61.40;;;;;;5098645;28;20043;-76
2022/03/02 03:27:55;;;;;;;8.55;4.22;;;-0.60;61.40;;;;;;5116041;28;20039;-75
2022/03/02 03:30:23;;;;;;;7.53;3.97;;;-0.60;61.40;;;;;;5115599;28;20016;-75
2022/03/02 03:32:49;;;;;;;;;;;-0.60;61.50;;;;;;5116077;28;20024;-76
2022/03/02 03:35:17;;;;;;;9.95;4.63;;;-0.60;61.20;;;;;;5115637;28;20356;-75
2022/03/02 03:37:44;;;;;;;11.20;5.22;;;-0.60;61.30;;;;;;5115566;28;20020;-76
2022/03/02 03:40:12;;;;;;;13.40;4.82;;;-0.60;61.50;;;;;;5115545;28;20762;-76
2022/03/02 03:42:39;;;;;;;14.07;5.65;;;-0.60;61.60;;;;;;5115510;28;20110;-76
2022/03/02 03:45:06;;;;;;;12.23;5.47;;;-0.60;61.80;;;;;;5112003;28;20024;-75
2022/03/02 03:47:32;;;;;;;9.33;5.47;;;-0.60;61.90;;;;;;5095001;28;20625;-75
2022/03/02 03:49:58;;;;;;;12.52;4.47;;;-0.70;62.00;;;;;;5094799;28;20016;-76
2022/03/02 03:52:24;;;;;;;12.10;4.80;;;-0.60;62.10;;;;;;5094765;28;20027;-76
2022/03/02 03:54:49;;;;;;;11.85;5.43;;;-0.60;62.30;;;;;;5076731;28;20115;-76
2022/03/02 03:57:15;;;;;;;12.20;4.53;;;-0.70;62.50;;;;;;5099995;28;20023;-74
2022/03/02 03:59:41;;;;;;;11.57;4.35;;;-0.70;62.50;;;;;;5115996;28;20024;-76
2022/03/02 04:02:07;;;;;;;9.73;5.32;;;-0.60;62.50;;;;;;5093027;28;20044;-76
2022/03/02 04:04:33;;;;;;;8.07;5.25;;;-0.60;62.40;;;;;;5094619;28;20020;-75
2022/03/02 04:06:58;;;;;;;10.48;5.18;;;-0.60;62.30;;;;;;5100866;28;20095;-77
2022/03/02 04:09:24;;;;;;;19.25;6.20;;;-0.50;62.30;;;;;;5093773;28;20036;-77
2022/03/02 04:11:50;;;;;;;13.85;5.57;;;-0.50;62.30;;;;;;5099363;28;20545;-75
2022/03/02 04:14:17;;;;;;;12.90;5.85;;;-0.50;62.40;;;;;;5115121;28;20018;-75
2022/03/02 04:16:43;;;;;;;8.65;5.20;;;-0.60;62.50;;;;;;5115173;28;20480;-76
2022/03/02 04:19:09;;;;;;;14.88;6.00;;;-0.60;62.50;;;;;;5115407;28;20019;-79
2022/03/02 04:21:34;;;;;;;18.17;6.25;;;-0.60;62.50;;;;;;5096241;28;20043;-76
2022/03/02 04:24:01;;;;;;;13.73;6.65;;;-0.60;62.60;;;;;;5114699;28;20038;-76
2022/03/02 04:26:27;;;;;;;9.38;5.30;;;-0.70;62.80;;;;;;5080788;28;20126;-76
2022/03/02 04:28:52;;;;;;;15.95;5.88;;;-0.70;63.10;;;;;;5113432;28;20157;-78
2022/03/02 04:31:18;;;;;;;12.27;6.30;;;-0.70;63.40;;;;;;5114812;28;20020;-75
2022/03/02 04:33:44;;;;;;;16.10;6.43;;;-0.60;63.70;;;;;;5114380;28;20027;-77
2022/03/02 04:36:10;;;;;;;14.20;7.53;;;-0.70;63.70;;;;;;5114837;28;20030;-76
2022/03/02 04:38:36;;;;;;;18.48;7.22;;;-0.60;63.60;;;;;;5115309;28;20481;-77
2022/03/02 04:41:03;;;;;;;12.85;7.18;;;-0.60;63.60;;;;;;5114605;28;20092;-76
2022/03/02 04:43:28;;;;;;;19.58;7.93;;;-0.60;63.50;;;;;;5115048;28;20429;-78
2022/03/02 04:45:54;;;;;;;19.05;7.05;;;-0.60;63.60;;;;;;5114882;28;20069;-77
2022/03/02 04:48:20;;;;;;;19.05;8.25;;;-0.60;63.60;;;;;;5115262;28;20035;-80
2022/03/02 04:50:46;;;;;;;14.93;7.15;;;-0.60;63.40;;;;;;5114886;28;20020;-76
2022/03/02 04:53:14;;;;;;;21.58;8.00;;;-0.60;63.20;;;;;;5108792;28;20460;-77
2022/03/02 04:55:40;;;;;;;16.48;7.43;;;-0.60;63.10;;;;;;5093727;28;20031;-75
2022/03/02 04:58:06;;;;;;;13.88;8.63;;;-0.60;63.00;;;;;;5106026;28;20023;-76
2022/03/02 05:00:35;;;;;;;19.42;8.55;;;-0.60;63.00;;;;;;5114105;28;20032;-78
2022/03/02 05:03:04;;;;;;;22.42;8.32;;;-0.60;63.10;;;;;;5112821;28;20031;-78
2022/03/02 05:05:34;;;;;;;20.65;7.43;;;-0.60;63.10;;;;;;5115447;28;20080;-78
2022/03/02 05:08:00;;;;;;;14.43;8.20;;;-0.60;63.10;;;;;;5116113;27;20020;-76
2022/03/02 05:10:27;;;;;;;17.08;9.02;;;-0.60;63.10;;;;;;5098608;28;20035;-78
2022/03/02 05:12:53;;;;;;;22.58;10.27;;;-0.60;63.20;;;;;;5114930;28;20134;-78
2022/03/02 05:15:19;;;;;;;36.70;14.98;;;-0.60;63.10;;;;;;5114317;28;20035;-79
2022/03/02 05:17:46;;;;;;;21.92;8.85;;;-0.60;63.10;;;;;;5114475;28;20024;-79
2022/03/02 05:20:14;;;;;;;20.43;10.20;;;-0.60;63.10;;;;;;5114429;28;20055;-79
2022/03/02 05:22:40;;;;;;;17.77;9.23;;;-0.60;63.00;;;;;;5114390;28;20294;-79
2022/03/02 05:25:08;;;;;;;22.33;8.68;;;-0.50;63.10;;;;;;5098292;28;20104;-74
2022/03/02 05:27:34;;;;;;;19.33;9.73;;;-0.50;63.00;;;;;;5093049;28;20030;-78
2022/03/02 05:30:00;;;;;;;14.55;8.30;;;-0.50;63.00;;;;;;5093822;28;20031;-79
2022/03/02 05:32:27;;;;;;;18.88;8.68;;;-0.40;62.80;;;;;;5093567;28;20020;-76
2022/03/02 05:34:53;;;;;;;21.85;8.10;;;-0.40;62.80;;;;;;5093320;28;20085;-77
2022/03/02 05:37:19;;;;;;;16.08;8.35;;;-0.40;62.70;;;;;;5075151;28;20059;-76
2022/03/02 05:39:46;;;;;;;18.70;8.95;;;-0.40;62.80;;;;;;5074824;28;20032;-78
2022/03/02 05:42:12;;;;;;;18.75;9.15;;;-0.30;62.80;;;;;;5093345;28;20068;-76
2022/03/02 05:44:38;;;;;;;23.92;9.75;;;-0.30;63.00;;;;;;5093283;28;20512;-76
2022/03/02 05:47:04;;;;;;;21.70;9.73;;;-0.30;63.10;;;;;;5092333;28;20496;-78
2022/03/02 05:49:30;;;;;;;22.00;11.33;;;-0.30;63.20;;;;;;5074159;28;20032;-78
2022/03/02 05:51:56;;;;;;;22.23;8.88;;;-0.20;63.20;;;;;;5092290;28;20020;-76
2022/03/02 05:54:22;;;;;;;19.90;7.50;;;-0.20;63.20;;;;;;5091757;28;20077;-77
2022/03/02 05:56:47;;;;;;;16.13;7.93;;;-0.20;63.20;;;;;;5094280;28;20051;-76
2022/03/02 05:59:14;;;;;;;20.15;8.23;;;-0.10;63.00;;;;;;5092154;28;20016;-76
2022/03/02 06:01:41;;;;;;;19.97;8.27;;;0.10;63.00;;;;;;5091827;28;20552;-75
2022/03/02 06:04:07;;;;;;;13.43;8.57;;;0.10;62.80;;;;;;5094776;28;20540;-78
2022/03/02 06:09:20;;;;;;;20.98;7.97;;;0.20;62.70;;;;;;5110272;28;20022;-77
2022/03/02 06:11:46;;;;;;;26.40;8.48;;;0.20;62.60;;;;;;5108401;28;20090;-75
2022/03/02 06:14:21;;;;;;;14.52;8.77;;;0.30;62.60;;;;;;5101394;28;20050;-80
2022/03/02 06:16:47;;;;;;;22.73;7.38;;;0.20;62.60;;;;;;5112359;28;20020;-79
2022/03/02 06:19:14;;;;;;;21.08;8.57;;;0.30;62.60;;;;;;5113129;28;20024;-78
2022/03/02 06:21:43;;;;;;;15.30;7.57;;;0.40;62.60;;;;;;5111941;28;20374;-77
2022/03/02 06:24:09;;;;;;;12.13;6.03;;;0.40;62.60;;;;;;5102826;28;20111;-76
2022/03/02 06:26:35;;;;;;;12.83;7.43;;;0.40;62.40;;;;;;5112337;28;20072;-76
2022/03/02 06:29:02;;;;;;;11.45;6.18;;;0.50;62.20;;;;;;5106513;28;20020;-79
2022/03/02 06:31:27;;;;;;;16.60;5.65;;;0.50;62.10;;;;;;5112373;28;20479;-75
2022/03/02 06:33:53;;;;;;;13.32;5.88;;;0.60;61.90;;;;;;5111498;28;20108;-78
2022/03/02 06:36:20;;;;;;;14.30;5.97;;;0.60;61.80;;;;;;5112008;28;20515;-76
2022/03/02 06:38:46;;;;;;;18.90;6.88;;;0.70;61.90;;;;;;5092466;28;20066;-75
2022/03/02 06:41:36;;;;;;;18.23;6.43;;;0.70;61.90;;;;;;5112082;28;20035;-76
2022/03/02 06:44:08;;;;;;;20.23;8.35;;;0.70;61.80;;;;;;5106849;28;20024;-77
2022/03/02 06:46:47;;;;;;;21.55;8.68;;;0.80;61.70;;;;;;5091755;28;20379;-77
2022/03/02 06:49:30;;;;;;;24.40;8.18;;;0.80;61.70;;;;;;5073604;28;20025;-74
2022/03/02 06:52:02;;;;;;;54.13;11.07;;;0.90;61.70;;;;;;5091823;28;20162;-76
2022/03/02 06:54:30;;;;;;;67.93;14.32;;;1.00;61.70;;;;;;5092865;28;20477;-76
2022/03/02 06:57:01;;;;;;;53.42;15.10;;;1.00;61.60;;;;;;5092462;28;20070;-75
2022/03/02 06:59:39;;;;;;;24.63;9.32;;;1.10;61.60;;;;;;5094069;28;20392;-77
2022/03/02 07:02:07;;;;;;;20.85;9.23;;;1.20;61.40;;;;;;5083318;28;20527;-77
2022/03/02 07:04:43;;;;;;;14.68;8.07;;;1.20;61.30;;;;;;5112267;28;20160;-75
2022/03/02 07:07:11;;;;;;;21.35;8.73;;;1.30;61.30;;;;;;5112114;28;20039;-75
2022/03/02 07:09:38;;;;;;;21.83;8.77;;;1.30;61.30;;;;;;5077324;28;20039;-77
2022/03/02 07:12:23;;;;;;;;;;;1.30;61.30;;;;;;5112436;28;20422;-78
2022/03/02 07:14:50;;;;;;;20.17;11.38;;;1.40;61.30;;;;;;5111934;28;19904;-78
2022/03/02 07:17:16;;;;;;;22.35;8.52;;;1.50;61.10;;;;;;5105190;28;20358;-75
2022/03/02 07:19:41;;;;;;;23.90;9.15;;;1.60;61.20;;;;;;5091267;28;20028;-79
2022/03/02 07:22:11;;;;;;;18.70;8.68;;;1.60;61.10;;;;;;5098839;28;20031;-76
2022/03/02 07:24:51;;;;;;;22.02;7.88;;;1.70;61.00;;;;;;5090504;28;20465;-78
2022/03/02 07:27:18;;;;;;;24.02;9.00;;;1.80;60.90;;;;;;5091402;28;20499;-76
2022/03/02 07:29:47;;;;;;;29.48;9.48;;;1.90;60.70;;;;;;5091283;28;20020;-75
2022/03/02 07:32:16;;;;;;;30.63;10.48;;;2.00;60.70;;;;;;5073551;28;20029;-77
2022/03/02 07:34:42;;;;;;;19.80;9.75;;;2.10;60.30;;;;;;5093440;28;20020;-74
2022/03/02 07:37:11;;;;;;;32.78;9.32;;;2.20;60.00;;;;;;5072771;28;20532;-76
2022/03/02 07:39:37;;;;;;;28.17;9.43;;;2.30;59.80;;;;;;5091198;28;20021;-77
2022/03/02 07:42:03;;;;;;;18.67;8.88;;;2.90;60.10;;;;;;5094963;28;20039;-77
2022/03/02 07:44:29;;;;;;;26.00;10.00;;;4.30;59.30;;;;;;5115164;28;20031;-78
2022/03/02 07:46:55;;;;;;;22.40;8.75;;;6.10;56.00;;;;;;5096911;28;20023;-77
2022/03/02 07:49:21;;;;;;;14.93;8.43;;;7.00;50.30;;;;;;5115281;28;20026;-76
2022/03/02 07:51:50;;;;;;;18.50;8.73;;;6.90;49.20;;;;;;5115369;28;20106;-77
2022/03/02 07:54:20;;;;;;;26.23;9.23;;;6.40;49.10;;;;;;5097161;28;20073;-77
2022/03/02 07:56:46;;;;;;;23.60;8.82;;;6.00;49.90;;;;;;5096757;28;20076;-76
2022/03/02 07:59:14;;;;;;;19.10;8.82;;;5.60;50.70;;;;;;5104747;28;20017;-78
2022/03/02 08:01:40;;;;;;;18.05;8.40;;;5.30;51.20;;;;;;5076288;28;20043;-77
2022/03/02 08:04:09;;;;;;;23.65;9.75;;;5.40;51.70;;;;;;5094464;28;20020;-78
2022/03/02 08:06:37;;;;;;;19.77;10.43;;;5.50;51.30;;;;;;5094648;28;20027;-77
2022/03/02 08:09:04;;;;;;;21.67;9.35;;;5.50;51.10;;;;;;5094583;28;20027;-78
2022/03/02 08:11:37;;;;;;;25.77;9.27;;;5.50;51.10;;;;;;5096706;28;20575;-77
2022/03/02 08:14:03;;;;;;;21.85;8.23;;;5.80;51.20;;;;;;5096732;28;20031;-75
2022/03/02 08:16:30;;;;;;;28.20;9.43;;;6.50;50.50;;;;;;5114585;28;20034;-78
2022/03/02 08:18:58;;;;;;;23.20;9.88;;;7.70;48.70;;;;;;5114916;28;20020;-77
2022/03/02 08:21:27;;;;;;;23.90;8.55;;;9.20;46.60;;;;;;5114578;28;20365;-78
2022/03/02 08:23:57;;;;;;;20.80;9.32;;;10.70;43.60;;;;;;5114709;28;20015;-77
2022/03/02 08:26:24;;;;;;;21.48;8.18;;;12.00;41.20;;;;;;5114691;28;20024;-77
2022/03/02 08:28:54;;;;;;;20.63;7.97;;;13.20;39.60;;;;;;5096290;28;20084;-77
2022/03/02 08:31:22;;;;;;;25.92;9.32;;;14.50;37.40;;;;;;5114345;28;20100;-77
2022/03/02 08:33:50;;;;;;;22.85;9.90;;;15.60;35.90;;;;;;5099061;28;20036;-79
2022/03/02 08:36:21;;;;;;;22.02;8.73;;;16.80;33.90;;;;;;5094152;28;20077;-78
2022/03/02 08:38:52;;;;;;;28.45;9.15;;;17.60;32.70;;;;;;5094100;28;20024;-79
2022/03/02 08:41:19;;;;;;;26.73;10.07;;;18.50;30.90;;;;;;5093740;28;20032;-78
2022/03/02 08:43:49;;;;;;;32.88;10.02;;;18.70;30.00;;;;;;5093795;28;20027;-77
2022/03/02 08:46:15;;;;;;;16.75;8.90;;;19.00;29.90;;;;;;5093765;28;20038;-78
2022/03/02 08:48:41;;;;;;;24.08;9.32;;;19.50;29.70;;;;;;5093426;28;20028;-79
2022/03/02 08:51:08;;;;;;;19.48;8.93;;;20.30;29.10;;;;;;5076444;28;20546;-80
2022/03/02 08:53:34;;;;;;;70.43;13.50;;;20.60;28.10;;;;;;5092835;28;20024;-79
2022/03/02 08:56:03;;;;;;;26.35;8.98;;;21.00;27.80;;;;;;5093664;28;20067;-80
2022/03/02 08:58:30;;;;;;;32.28;9.10;;;21.40;27.30;;;;;;5093633;28;20024;-78
2022/03/02 09:00:59;;;;;;;15.57;6.05;;;21.60;26.90;;;;;;5093733;28;20120;-80
2022/03/02 09:03:25;;;;;;;16.55;6.30;;;21.30;26.40;;;;;;5093371;28;20039;-78
2022/03/02 09:05:52;;;;;;;12.57;6.68;;;21.30;26.70;;;;;;5093760;28;20023;-77
2022/03/02 09:08:18;;;;;;;19.80;7.73;;;21.70;26.70;;;;;;5093661;28;20048;-79
2022/03/02 09:10:44;;;;;;;16.60;7.13;;;22.30;26.30;;;;;;5093148;28;20034;-78
2022/03/02 09:13:12;;;;;;;18.95;7.00;;;22.70;25.90;;;;;;5109500;28;20598;-79
2022/03/02 09:15:39;;;;;;;12.27;6.72;;;23.10;25.40;;;;;;5113721;28;20073;-79
2022/03/02 09:18:06;;;;;;;19.77;8.20;;;23.00;25.30;;;;;;5113323;28;20024;-82
2022/03/02 09:20:33;;;;;;;23.15;7.65;;;22.60;25.40;;;;;;5112629;28;20027;-79
2022/03/02 09:23:06;;;;;;;16.95;6.88;;;23.10;25.60;;;;;;5113460;28;20027;-79
2022/03/02 09:25:38;;;;;;;12.60;6.53;;;23.60;25.00;;;;;;5113562;28;20024;-80
2022/03/02 09:28:05;;;;;;;15.98;6.47;;;23.50;24.70;;;;;;5095379;28;20027;-80
2022/03/02 09:30:31;;;;;;;18.67;6.85;;;23.50;24.40;;;;;;5113489;28;20072;-78
2022/03/02 09:33:00;;;;;;;15.48;7.03;;;23.90;24.30;;;;;;5094914;28;20032;-78
2022/03/02 09:35:27;;;;;;;14.95;7.13;;;23.70;24.10;;;;;;5085191;28;20028;-78
2022/03/02 09:37:53;;;;;;;21.13;7.97;;;23.40;24.60;;;;;;5093110;28;20026;-80
2022/03/02 09:40:22;;;;;;;19.45;6.97;;;23.60;24.40;;;;;;5074442;28;20398;-79
2022/03/02 09:42:55;;;;;;;21.88;7.43;;;23.80;24.40;;;;;;5093666;28;20024;-76
2022/03/02 09:45:23;;;;;;;12.50;6.60;;;23.90;24.20;;;;;;5095567;28;20069;-78
2022/03/02 09:47:56;;;;;;;20.60;7.25;;;23.50;24.10;;;;;;5077006;28;20046;-78
2022/03/02 09:50:24;;;;;;;17.27;7.63;;;23.30;24.50;;;;;;5095100;28;20098;-78
2022/03/02 09:52:52;;;;;;;22.40;8.80;;;23.50;24.30;;;;;;5093034;28;20381;-79
2022/03/02 09:55:24;;;;;;;19.98;8.05;;;23.10;24.40;;;;;;5093225;28;20013;-79
2022/03/02 09:57:57;;;;;;;20.42;8.25;;;23.40;24.40;;;;;;5093011;28;20077;-78
2022/03/02 10:00:25;;;;;;;24.13;7.82;;;23.70;24.40;;;;;;5074269;28;20408;-78
2022/03/02 10:02:55;;;;;;;16.50;7.32;;;24.00;24.00;;;;;;5074439;28;20121;-80
2022/03/02 10:05:31;;;;;;;19.50;8.30;;;23.70;24.00;;;;;;5091545;28;20028;-79
2022/03/02 10:08:01;;;;;;;25.03;7.50;;;23.90;24.20;;;;;;5092533;28;20077;-79
2022/03/02 10:10:31;;;;;;;27.80;8.75;;;24.40;24.10;;;;;;5091751;28;20289;-78
2022/03/02 10:13:01;;;;;;;13.55;7.47;;;25.00;23.70;;;;;;5106167;28;20035;-79
2022/03/02 10:15:28;;;;;;;14.43;7.32;;;24.80;23.50;;;;;;5112742;28;20062;-80
2022/03/02 10:17:56;;;;;;;20.63;7.13;;;24.20;23.30;;;;;;5112481;28;20031;-79
2022/03/02 10:20:25;;;;;;;12.40;6.35;;;23.50;23.70;;;;;;5112300;28;20028;-79
2022/03/02 10:23:33;;;;;;;15.73;6.70;;;22.80;23.90;;;;;;5112422;28;20433;-79
2022/03/02 10:26:03;;;;;;;16.95;6.80;;;22.40;24.60;;;;;;5083592;28;20118;-80
2022/03/02 10:28:54;;;;;;;14.07;6.38;;;22.00;24.50;;;;;;5102297;28;20028;-79
2022/03/02 10:31:40;;;;;;;15.02;6.75;;;21.60;24.70;;;;;;5080995;28;20608;-79
2022/03/02 10:34:25;;;;;;;17.08;7.28;;;20.60;25.10;;;;;;5092139;28;20074;-78
2022/03/02 10:37:01;;;;;;;14.73;7.00;;;18.80;25.90;;;;;;5091962;28;20538;-79
2022/03/02 10:39:46;;;;;;;14.18;6.38;;;17.10;26.90;;;;;;5091968;28;20030;-78
2022/03/02 10:42:20;;;;;;;21.63;6.90;;;15.30;28.10;;;;;;5092462;28;20397;-78
2022/03/02 10:44:59;;;;;;;15.20;6.65;;;13.80;29.40;;;;;;5084943;28;20035;-77
2022/03/02 10:47:28;;;;;;;13.50;7.03;;;12.90;30.60;;;;;;5113037;28;20024;-77
2022/03/02 10:49:54;;;;;;;19.38;8.18;;;12.20;31.30;;;;;;5112269;28;20020;-78
2022/03/02 10:52:22;;;;;;;20.30;11.20;;;11.60;32.20;;;;;;5112378;28;20077;-77
2022/03/02 10:54:49;;;;;;;15.77;8.13;;;11.20;33.10;;;;;;5112198;28;20647;-79
2022/03/02 10:57:18;;;;;;;;;;;10.90;33.70;;;;;;5112767;28;20096;-77
2022/03/02 10:59:45;;;;;;;12.32;6.95;;;10.60;33.10;;;;;;5111234;28;19908;-77
2022/03/02 11:02:11;;;;;;;20.55;6.30;;;10.20;34.40;;;;;;5094031;28;20035;-78
2022/03/02 11:04:45;;;;;;;17.67;7.82;;;10.00;34.90;;;;;;5111949;28;20072;-78
2022/03/02 11:07:15;;;;;;;14.25;6.80;;;9.70;35.80;;;;;;5112170;28;20023;-79
2022/03/02 11:09:47;;;;;;;11.55;6.72;;;9.40;36.20;;;;;;5093696;28;20028;-78
2022/03/02 11:12:14;;;;;;;15.95;6.90;;;9.20;36.70;;;;;;5111910;28;20030;-79
2022/03/02 11:15:03;;;;;;;16.48;8.15;;;9.10;37.00;;;;;;5112303;28;20039;-77
2022/03/02 11:17:32;;;;;;;11.43;6.03;;;8.90;37.50;;;;;;5097220;28;20515;-77
2022/03/02 11:20:04;;;;;;;11.75;6.20;;;8.80;37.60;;;;;;5116022;28;20024;-79
2022/03/02 11:22:30;;;;;;;17.58;7.45;;;8.70;37.90;;;;;;5115930;28;20974;-77
2022/03/02 11:24:58;;;;;;;16.98;7.82;;;8.70;38.20;;;;;;5115926;28;20055;-78
2022/03/02 11:27:41;;;;;;;14.82;8.43;;;8.70;38.00;;;;;;5115943;28;20483;-77
2022/03/02 11:30:08;;;;;;;21.10;7.18;;;8.60;38.10;;;;;;5116018;28;20024;-78
2022/03/02 11:32:36;;;;;;;12.60;6.78;;;8.50;38.20;;;;;;5114623;28;20094;-77
2022/03/02 11:35:04;;;;;;;17.92;7.85;;;8.40;38.40;;;;;;5095368;28;20471;-77
2022/03/02 11:37:31;;;;;;;13.15;6.53;;;8.30;38.60;;;;;;5095166;28;20073;-76
2022/03/02 11:39:58;;;;;;;20.65;7.60;;;8.30;38.70;;;;;;5077173;28;20485;-78
2022/03/02 11:42:30;;;;;;;17.90;8.32;;;8.20;38.70;;;;;;5095262;28;20065;-78
2022/03/02 11:44:59;;;;;;;14.00;6.32;;;8.20;39.00;;;;;;5095091;28;20020;-76
2022/03/02 11:47:43;;;;;;;15.02;6.10;;;8.10;38.70;;;;;;5094953;28;20020;-75
2022/03/02 11:50:11;;;;;;;15.63;6.93;;;8.10;39.00;;;;;;5094695;28;20023;-77
2022/03/02 11:52:45;;;;;;;21.75;7.63;;;8.00;39.30;;;;;;5077429;28;20028;-77
2022/03/02 11:55:17;;;;;;;20.02;7.43;;;8.00;39.40;;;;;;5095900;28;20376;-77
2022/03/02 11:57:48;;;;;;;19.83;7.97;;;8.00;39.40;;;;;;5095682;28;20028;-77
2022/03/02 12:00:14;;;;;;;16.10;6.67;;;8.00;39.00;;;;;;5095767;28;20385;-76
2022/03/02 12:03:02;;;;;;;15.85;7.43;;;8.00;39.00;;;;;;5095691;28;20215;-78
2022/03/02 12:05:31;;;;;;;10.65;5.53;;;8.00;39.00;;;;;;5097842;28;20024;-77
2022/03/02 12:08:08;;;;;;;10.82;4.75;;;8.00;38.80;;;;;;5108299;28;20022;-76
2022/03/02 12:10:35;;;;;;;;;;;7.90;38.80;;;;;;5097209;28;20031;-77
2022/03/02 12:13:04;;;;;;;16.63;5.07;;;7.80;38.60;;;;;;5115202;28;19907;-79
2022/03/02 12:15:53;;;;;;;13.20;5.57;;;7.80;38.90;;;;;;5115128;28;20078;-76
2022/03/02 12:18:20;;;;;;;15.32;6.05;;;7.70;38.60;;;;;;5094388;28;20550;-76
2022/03/02 12:20:49;;;;;;;10.50;5.25;;;7.70;38.50;;;;;;5094616;28;20031;-78
2022/03/02 12:23:34;;;;;;;11.27;5.53;;;7.70;38.60;;;;;;5094435;28;20105;-78
2022/03/02 12:26:01;;;;;;;13.00;5.63;;;7.70;39.40;;;;;;5094121;28;20020;-76
2022/03/02 12:28:27;;;;;;;8.20;5.60;;;7.70;39.00;;;;;;5093259;28;20492;-77
2022/03/02 12:30:53;;;;;;;18.08;6.25;;;7.70;38.70;;;;;;5094159;28;20044;-77
2022/03/02 12:33:20;;;;;;;12.35;5.18;;;7.70;38.80;;;;;;5094540;28;20024;-79
2022/03/02 12:35:46;;;;;;;16.38;5.88;;;7.60;38.80;;;;;;5094057;28;20016;-76
2022/03/02 12:38:13;;;;;;;10.18;5.25;;;7.60;38.80;;;;;;5094132;28;20455;-80
2022/03/02 12:40:42;;;;;;;10.63;5.13;;;7.60;38.60;;;;;;5094125;28;20104;-77
2022/03/02 12:43:16;;;;;;;13.27;4.85;;;7.50;39.00;;;;;;5094703;28;20103;-74
2022/03/02 12:45:49;;;;;;;16.55;6.03;;;7.50;38.30;;;;;;5077228;28;20043;-77
2022/03/02 12:48:28;;;;;;;12.50;5.80;;;7.40;38.50;;;;;;5076127;28;20032;-79
2022/03/02 12:50:54;;;;;;;12.63;5.68;;;7.50;38.70;;;;;;5075682;28;20051;-77